Time;durP1;ratioP1;P1;durP2;ratioP2;P2;SDS_P1;SDS_P2;PMS_P1;PMS_P2;Temp;Humidity;BMP_temperature;BMP_pressure;BME280_temperature;BME280_humidity;BME280_pressure;Samples;Min_cycle;Max_cycle;Signal;HPM_P1;HPM_P2
2022/11/14 00:02:09;;;;;;;4.22;2.67;;;6.50;99.90;;;;;;5056717;28;20053;-73
2022/11/14 00:04:35;;;;;;;0.98;0.95;;;6.60;99.90;;;;;;5057255;28;20041;-73
2022/11/14 00:07:00;;;;;;;3.33;1.63;;;6.60;99.90;;;;;;5056838;28;20044;-75
2022/11/14 00:09:27;;;;;;;0.90;0.85;;;6.60;99.90;;;;;;5058800;28;20045;-75
2022/11/14 00:11:53;;;;;;;0.82;0.77;;;6.60;99.90;;;;;;5059114;28;20075;-74
2022/11/14 00:14:19;;;;;;;3.45;2.65;;;6.60;99.90;;;;;;5055410;28;20041;-74
2022/11/14 00:16:45;;;;;;;1.10;0.93;;;6.60;99.90;;;;;;5057075;28;20091;-73
2022/11/14 00:19:10;;;;;;;3.03;2.33;;;6.60;99.90;;;;;;5058539;28;20040;-75
2022/11/14 00:21:36;;;;;;;3.00;1.02;;;6.60;99.90;;;;;;5057051;28;20044;-74
2022/11/14 00:24:03;;;;;;;7.35;3.15;;;6.60;99.90;;;;;;5056005;28;20041;-74
2022/11/14 00:26:28;;;;;;;1.75;1.35;;;6.60;99.90;;;;;;5055784;28;20084;-75
2022/11/14 00:28:54;;;;;;;3.80;2.25;;;6.60;99.90;;;;;;5058468;28;20056;-74
2022/11/14 00:31:20;;;;;;;6.57;3.63;;;6.70;99.90;;;;;;5059703;28;20037;-75
2022/11/14 00:33:47;;;;;;;0.47;0.47;;;6.70;99.90;;;;;;5059197;28;20051;-73
2022/11/14 00:36:12;;;;;;;1.95;1.65;;;6.70;99.90;;;;;;5057555;28;20041;-75
2022/11/14 00:38:38;;;;;;;1.67;1.27;;;6.70;99.90;;;;;;5057302;28;20087;-75
2022/11/14 00:41:04;;;;;;;2.58;1.40;;;6.70;99.90;;;;;;5058739;28;20041;-74
2022/11/14 00:43:29;;;;;;;1.48;1.38;;;6.70;99.90;;;;;;5079104;28;20028;-74
2022/11/14 00:45:55;;;;;;;1.65;1.50;;;6.70;99.90;;;;;;5078858;28;20041;-74
2022/11/14 00:48:21;;;;;;;3.13;2.85;;;6.70;99.90;;;;;;5077652;28;20131;-74
2022/11/14 00:50:46;;;;;;;6.68;2.63;;;6.70;99.90;;;;;;5078249;28;20072;-74
2022/11/14 00:53:12;;;;;;;2.58;2.38;;;6.70;99.90;;;;;;5076968;28;20119;-75
2022/11/14 00:55:38;;;;;;;2.88;0.82;;;6.70;99.90;;;;;;5077751;28;20056;-74
2022/11/14 00:58:04;;;;;;;3.17;2.72;;;6.70;99.90;;;;;;5073967;28;20061;-75
2022/11/14 01:00:29;;;;;;;2.05;1.75;;;6.70;99.90;;;;;;5056127;28;20051;-74
2022/11/14 01:02:57;;;;;;;2.40;2.00;;;6.60;99.90;;;;;;5062104;28;20043;-74
2022/11/14 01:05:23;;;;;;;3.53;1.98;;;6.70;99.90;;;;;;5043496;28;20053;-74
2022/11/14 01:07:49;;;;;;;2.72;2.42;;;6.60;99.90;;;;;;5061556;28;20041;-75
2022/11/14 01:10:15;;;;;;;1.30;1.20;;;6.70;99.90;;;;;;5080972;28;20072;-74
2022/11/14 01:12:41;;;;;;;4.15;3.80;;;6.70;99.90;;;;;;5081448;28;20083;-75
2022/11/14 01:15:07;;;;;;;2.30;2.10;;;6.70;99.90;;;;;;5074860;28;20045;-75
2022/11/14 01:17:33;;;;;;;1.00;0.90;;;6.70;99.90;;;;;;5059120;28;20048;-74
2022/11/14 01:19:59;;;;;;;7.70;4.70;;;6.60;99.90;;;;;;5060953;28;20032;-74
2022/11/14 01:22:24;;;;;;;2.45;1.90;;;6.60;99.90;;;;;;5062258;28;20053;-75
2022/11/14 01:24:50;;;;;;;5.68;3.00;;;6.60;99.90;;;;;;5062596;28;20045;-75
2022/11/14 01:27:15;;;;;;;5.55;4.38;;;6.60;99.90;;;;;;5060455;28;20040;-72
2022/11/14 01:29:41;;;;;;;2.83;1.95;;;6.50;99.90;;;;;;5058928;28;20037;-73
2022/11/14 01:32:07;;;;;;;3.65;2.88;;;6.50;99.90;;;;;;5063174;28;20080;-73
2022/11/14 01:34:32;;;;;;;4.38;4.00;;;6.40;99.90;;;;;;5079828;28;20067;-75
2022/11/14 01:36:58;;;;;;;1.80;1.63;;;6.40;99.90;;;;;;5078190;28;20040;-73
2022/11/14 01:39:26;;;;;;;4.90;3.03;;;6.30;99.90;;;;;;5064798;28;20056;-73
2022/11/14 01:41:51;;;;;;;6.68;3.45;;;6.30;99.90;;;;;;5080065;28;20040;-73
2022/11/14 01:44:40;;;;;;;6.25;3.30;;;6.30;99.90;;;;;;5079171;28;20051;-75
2022/11/14 01:47:06;;;;;;;2.65;2.45;;;6.30;99.90;;;;;;5080221;28;20041;-74
2022/11/14 01:49:41;;;;;;;3.70;3.33;;;6.30;99.90;;;;;;5077995;28;20048;-74
2022/11/14 01:52:16;;;;;;;2.47;2.33;;;6.30;99.90;;;;;;5079104;28;20048;-74
2022/11/14 01:54:46;;;;;;;2.38;2.17;;;6.30;99.90;;;;;;5060510;28;20033;-72
2022/11/14 01:57:15;;;;;;;8.35;5.13;;;6.20;99.90;;;;;;5041382;28;20076;-75
2022/11/14 01:59:45;;;;;;;3.85;3.13;;;6.30;99.90;;;;;;5061273;28;20053;-73
2022/11/14 02:02:23;;;;;;;1.80;1.70;;;6.30;99.90;;;;;;5058570;28;20098;-75
2022/11/14 02:04:59;;;;;;;22.55;5.55;;;6.30;99.90;;;;;;5088845;28;20047;-74
2022/11/14 02:07:28;;;;;;;2.38;2.17;;;6.30;99.90;;;;;;5099061;28;20047;-75
2022/11/14 02:09:55;;;;;;;5.20;4.13;;;6.30;99.90;;;;;;5097182;28;20086;-74
2022/11/14 02:12:21;;;;;;;2.42;2.05;;;6.30;99.90;;;;;;5096692;28;20118;-74
2022/11/14 02:14:50;;;;;;;5.35;3.63;;;6.30;99.90;;;;;;5059197;28;20041;-74
2022/11/14 02:17:17;;;;;;;3.58;2.03;;;6.30;99.90;;;;;;5096853;28;20044;-72
2022/11/14 02:19:56;;;;;;;4.40;4.10;;;6.30;99.90;;;;;;5099025;28;20036;-75
2022/11/14 02:22:22;;;;;;;5.53;3.30;;;6.30;99.90;;;;;;5098402;28;20053;-74
2022/11/14 02:24:48;;;;;;;3.30;3.00;;;6.30;99.90;;;;;;5069966;28;20041;-76
2022/11/14 02:27:15;;;;;;;3.95;3.65;;;6.30;99.90;;;;;;5059294;28;20033;-74
2022/11/14 02:29:41;;;;;;;5.45;2.65;;;6.30;99.90;;;;;;5059061;28;20044;-74
2022/11/14 02:32:07;;;;;;;3.40;3.10;;;6.40;99.90;;;;;;5060141;28;20045;-75
2022/11/14 02:34:33;;;;;;;10.00;5.50;;;6.40;99.90;;;;;;5040775;28;20477;-75
2022/11/14 02:36:58;;;;;;;7.00;5.00;;;6.40;99.90;;;;;;5059608;28;20056;-74
2022/11/14 02:39:24;;;;;;;3.33;3.03;;;6.40;99.90;;;;;;5059142;28;20037;-73
2022/11/14 02:41:50;;;;;;;23.17;3.97;;;6.40;99.90;;;;;;5059476;28;20045;-75
2022/11/14 02:44:17;;;;;;;4.28;3.22;;;6.40;99.90;;;;;;5060433;28;20047;-74
2022/11/14 02:46:42;;;;;;;3.72;3.38;;;6.50;99.90;;;;;;5060364;28;20041;-73
2022/11/14 02:49:08;;;;;;;3.63;2.88;;;6.50;99.90;;;;;;5061138;28;20041;-74
2022/11/14 02:51:34;;;;;;;5.30;3.80;;;6.50;99.90;;;;;;5058689;28;20436;-75
2022/11/14 02:53:59;;;;;;;3.42;2.88;;;6.50;99.90;;;;;;5060617;28;20105;-74
2022/11/14 02:56:25;;;;;;;4.20;3.63;;;6.50;99.90;;;;;;5060734;28;20033;-73
2022/11/14 02:58:51;;;;;;;4.15;3.75;;;6.50;99.90;;;;;;5059852;28;20049;-75
2022/11/14 03:01:16;;;;;;;2.20;2.00;;;6.50;99.90;;;;;;5058849;28;20045;-74
2022/11/14 03:03:42;;;;;;;6.00;4.72;;;6.50;99.90;;;;;;5059162;28;20067;-74
2022/11/14 03:06:07;;;;;;;9.00;5.47;;;6.50;99.90;;;;;;5059800;28;20044;-75
2022/11/14 03:08:33;;;;;;;6.03;3.33;;;6.50;99.90;;;;;;5059729;28;20060;-73
2022/11/14 03:11:09;;;;;;;3.42;3.13;;;6.50;99.90;;;;;;5040992;28;20056;-74
2022/11/14 03:13:35;;;;;;;2.17;1.83;;;6.50;99.90;;;;;;5061418;28;20056;-73
2022/11/14 03:16:06;;;;;;;2.53;2.25;;;6.50;99.90;;;;;;5043011;28;20049;-73
2022/11/14 03:18:32;;;;;;;4.38;3.75;;;6.50;99.90;;;;;;5060057;28;20040;-74
2022/11/14 03:21:07;;;;;;;2.42;1.70;;;6.50;99.90;;;;;;5058792;28;20051;-75
2022/11/14 03:23:33;;;;;;;3.22;2.88;;;6.50;99.90;;;;;;5042954;28;20151;-75
2022/11/14 03:26:00;;;;;;;6.28;3.17;;;6.50;99.90;;;;;;5060679;28;20052;-73
2022/11/14 03:28:26;;;;;;;4.38;2.67;;;6.50;99.90;;;;;;5058636;28;20053;-74
2022/11/14 03:30:52;;;;;;;4.07;3.72;;;6.50;99.90;;;;;;5060046;28;20124;-74
2022/11/14 03:33:17;;;;;;;3.53;3.20;;;6.50;99.90;;;;;;5059787;28;20560;-75
2022/11/14 03:35:43;;;;;;;11.07;4.20;;;6.50;99.90;;;;;;5058880;28;20069;-73
2022/11/14 03:38:09;;;;;;;4.18;3.50;;;6.50;99.90;;;;;;5068312;28;20431;-74
2022/11/14 03:40:38;;;;;;;3.28;2.80;;;6.50;99.90;;;;;;5079813;28;20056;-73
2022/11/14 03:43:03;;;;;;;6.38;4.72;;;6.50;99.90;;;;;;5078441;28;20041;-75
2022/11/14 03:45:29;;;;;;;3.35;2.40;;;6.50;99.90;;;;;;5079498;28;20090;-73
2022/11/14 03:47:54;;;;;;;2.88;2.53;;;6.50;99.90;;;;;;5079716;28;20049;-73
2022/11/14 03:50:20;;;;;;;4.75;2.90;;;6.50;99.90;;;;;;5079288;28;20066;-73
2022/11/14 03:52:48;;;;;;;6.63;3.63;;;6.50;99.90;;;;;;5078878;28;20032;-75
2022/11/14 03:55:14;;;;;;;7.40;4.82;;;6.50;99.90;;;;;;5078169;28;20040;-75
2022/11/14 03:57:39;;;;;;;2.78;2.47;;;6.50;99.90;;;;;;5079631;28;20059;-74
2022/11/14 04:00:06;;;;;;;4.60;3.67;;;6.50;99.90;;;;;;5078833;28;20469;-74
2022/11/14 04:02:31;;;;;;;4.10;3.00;;;6.50;99.90;;;;;;5078061;28;20040;-75
2022/11/14 04:04:57;;;;;;;8.43;3.97;;;6.50;99.90;;;;;;5080405;28;20486;-73
2022/11/14 04:07:22;;;;;;;5.45;4.78;;;6.50;99.90;;;;;;5079111;28;20040;-74
2022/11/14 04:09:48;;;;;;;3.20;2.63;;;6.50;99.90;;;;;;5079669;28;20036;-75
2022/11/14 04:12:14;;;;;;;4.53;2.80;;;6.50;99.90;;;;;;5079050;28;20048;-73
2022/11/14 04:14:39;;;;;;;4.22;2.53;;;6.50;99.90;;;;;;5078315;28;20044;-76
2022/11/14 04:17:05;;;;;;;5.45;4.38;;;6.50;99.90;;;;;;5078141;28;20071;-73
2022/11/14 04:19:30;;;;;;;5.30;3.28;;;6.50;99.90;;;;;;5076894;28;20052;-74
2022/11/14 04:21:56;;;;;;;4.65;3.65;;;6.50;99.90;;;;;;5077772;28;20041;-73
2022/11/14 04:24:22;;;;;;;2.28;2.00;;;6.50;99.90;;;;;;5077105;28;20036;-74
2022/11/14 04:26:47;;;;;;;6.07;4.15;;;6.50;99.90;;;;;;5077453;28;20062;-74
2022/11/14 04:29:13;;;;;;;5.10;4.25;;;6.50;99.90;;;;;;5077358;28;20098;-74
2022/11/14 04:31:38;;;;;;;4.28;3.85;;;6.50;99.90;;;;;;5057536;28;20037;-73
2022/11/14 04:34:04;;;;;;;9.55;4.85;;;6.50;99.90;;;;;;5057246;28;20067;-74
2022/11/14 04:36:29;;;;;;;3.10;2.78;;;6.50;99.90;;;;;;5059790;28;20045;-73
2022/11/14 04:38:55;;;;;;;2.78;2.30;;;6.50;99.90;;;;;;5061812;28;20048;-72
2022/11/14 04:41:20;;;;;;;1.98;1.88;;;6.50;99.90;;;;;;5060882;28;20040;-74
2022/11/14 04:43:46;;;;;;;2.10;1.92;;;6.50;99.90;;;;;;5059930;28;20052;-75
2022/11/14 04:46:11;;;;;;;3.28;2.97;;;6.40;99.90;;;;;;5061050;28;20069;-74
2022/11/14 04:48:37;;;;;;;3.42;3.13;;;6.50;99.90;;;;;;5060463;28;20064;-73
2022/11/14 04:51:03;;;;;;;5.00;3.58;;;6.50;99.90;;;;;;5060577;28;20072;-75
2022/11/14 04:53:28;;;;;;;2.05;1.85;;;6.50;99.90;;;;;;5062462;28;20056;-75
2022/11/14 04:55:54;;;;;;;4.78;3.33;;;6.50;99.90;;;;;;5060751;28;20045;-74
2022/11/14 04:58:19;;;;;;;4.20;2.65;;;6.40;99.90;;;;;;5061133;28;20069;-74
2022/11/14 05:00:45;;;;;;;8.13;6.03;;;6.40;99.90;;;;;;5061511;28;20053;-73
2022/11/14 05:03:10;;;;;;;5.22;3.65;;;6.50;99.90;;;;;;5061824;28;20033;-73
2022/11/14 05:05:36;;;;;;;5.72;3.47;;;6.40;99.90;;;;;;5061067;28;20045;-74
2022/11/14 05:08:02;;;;;;;4.10;3.70;;;6.40;99.90;;;;;;5062477;28;20037;-74
2022/11/14 05:10:27;;;;;;;7.07;4.00;;;6.40;99.90;;;;;;5060489;28;20048;-75
2022/11/14 05:12:53;;;;;;;8.20;4.78;;;6.40;99.90;;;;;;5060808;28;20070;-74
2022/11/14 05:15:19;;;;;;;2.13;1.92;;;6.30;99.90;;;;;;5061992;28;20093;-75
2022/11/14 05:17:45;;;;;;;4.47;2.53;;;6.30;99.90;;;;;;5060948;28;20048;-74
2022/11/14 05:20:11;;;;;;;2.10;1.92;;;6.30;99.90;;;;;;5061872;28;20045;-74
2022/11/14 05:22:36;;;;;;;3.67;2.85;;;6.30;99.90;;;;;;5061943;28;20037;-73
2022/11/14 05:25:02;;;;;;;9.00;2.90;;;6.30;99.90;;;;;;5062088;28;20052;-75
2022/11/14 05:27:28;;;;;;;8.30;3.03;;;6.30;99.90;;;;;;5061038;28;20073;-74
2022/11/14 05:29:54;;;;;;;5.50;2.90;;;6.30;99.90;;;;;;5027295;28;20037;-74
2022/11/14 05:32:20;;;;;;;4.25;2.85;;;6.30;99.90;;;;;;5060609;28;20040;-74
2022/11/14 05:34:46;;;;;;;1.10;1.00;;;6.30;99.90;;;;;;5061626;28;20046;-74
2022/11/14 05:37:12;;;;;;;4.22;3.45;;;6.30;99.90;;;;;;5059333;28;20383;-74
2022/11/14 05:39:37;;;;;;;5.20;4.05;;;6.30;99.90;;;;;;5060724;28;20111;-75
2022/11/14 05:42:03;;;;;;;3.80;3.28;;;6.30;99.90;;;;;;5060871;28;20059;-75
2022/11/14 05:44:29;;;;;;;4.15;2.22;;;6.30;99.90;;;;;;5064975;28;20095;-73
2022/11/14 05:46:54;;;;;;;6.55;2.35;;;6.30;99.90;;;;;;5099759;28;20117;-73
2022/11/14 05:49:20;;;;;;;3.55;3.22;;;6.40;99.90;;;;;;5079976;28;20041;-74
2022/11/14 05:51:46;;;;;;;6.78;3.08;;;6.20;63.20;;;;;;5080259;28;20075;-74
2022/11/14 05:54:11;;;;;;;3.80;3.33;;;6.20;86.20;;;;;;5078598;28;20041;-74
2022/11/14 05:56:37;;;;;;;3.63;3.22;;;6.20;98.00;;;;;;5077226;28;20044;-73
2022/11/14 05:59:03;;;;;;;1.63;1.52;;;6.20;99.90;;;;;;5080041;28;20052;-75
2022/11/14 06:01:28;;;;;;;17.90;2.75;;;6.20;99.90;;;;;;5060899;28;20597;-73
2022/11/14 06:03:54;;;;;;;8.70;3.65;;;6.20;99.90;;;;;;5078435;28;20048;-74
2022/11/14 06:06:20;;;;;;;14.93;4.00;;;6.20;99.90;;;;;;5079157;28;20063;-75
2022/11/14 06:08:47;;;;;;;3.03;2.78;;;6.20;99.90;;;;;;5080461;28;20353;-73
2022/11/14 06:11:16;;;;;;;5.57;4.85;;;6.20;99.10;;;;;;5078606;28;20108;-74
2022/11/14 06:13:42;;;;;;;2.88;1.65;;;6.20;93.60;;;;;;5059259;28;20077;-75
2022/11/14 06:16:13;;;;;;;3.13;2.58;;;6.30;71.50;;;;;;5060887;28;20045;-74
2022/11/14 06:18:40;;;;;;;2.83;2.55;;;6.10;89.50;;;;;;5059921;28;20041;-75
2022/11/14 06:21:17;;;;;;;4.18;3.50;;;6.00;84.80;;;;;;5058895;28;20047;-75
2022/11/14 06:23:43;;;;;;;3.58;3.15;;;6.00;99.90;;;;;;5042157;28;20059;-73
2022/11/14 06:26:30;;;;;;;3.35;2.92;;;6.00;99.90;;;;;;5060639;28;20059;-75
2022/11/14 06:28:57;;;;;;;4.30;3.95;;;6.00;99.90;;;;;;5059153;28;20037;-75
2022/11/14 06:31:24;;;;;;;8.35;3.80;;;6.00;99.90;;;;;;5058823;28;20053;-75
2022/11/14 06:33:50;;;;;;;4.80;3.45;;;6.00;99.90;;;;;;5059105;28;20064;-72
2022/11/14 06:36:16;;;;;;;2.88;2.63;;;6.00;99.90;;;;;;5059541;28;20045;-75
2022/11/14 06:38:42;;;;;;;2.83;2.60;;;5.90;93.00;;;;;;5058851;28;20774;-74
2022/11/14 06:41:16;;;;;;;6.57;4.13;;;5.80;99.80;;;;;;5041319;28;20075;-74
2022/11/14 06:43:44;;;;;;;4.00;3.58;;;5.80;99.90;;;;;;5057266;28;20053;-75
2022/11/14 06:46:12;;;;;;;3.03;2.67;;;5.80;99.90;;;;;;5058913;28;20041;-75
2022/11/14 06:48:39;;;;;;;8.82;3.88;;;5.70;99.90;;;;;;5057515;28;20041;-74
2022/11/14 06:51:05;;;;;;;3.95;3.35;;;5.70;99.90;;;;;;5058332;28;20044;-74
2022/11/14 06:53:33;;;;;;;6.75;3.38;;;5.70;99.90;;;;;;5057504;28;20060;-75
2022/11/14 06:56:02;;;;;;;8.93;4.13;;;5.70;99.90;;;;;;5057771;28;20048;-75
2022/11/14 06:58:32;;;;;;;4.60;3.33;;;5.70;99.90;;;;;;5057334;28;20052;-74
2022/11/14 07:01:10;;;;;;;2.70;2.50;;;5.70;99.90;;;;;;5059601;28;20049;-74
2022/11/14 07:03:36;;;;;;;4.05;3.65;;;5.70;99.90;;;;;;5056680;28;20041;-75
2022/11/14 07:06:03;;;;;;;3.53;3.22;;;5.70;99.90;;;;;;5057675;28;20043;-75
2022/11/14 07:08:29;;;;;;;7.00;3.20;;;5.70;99.90;;;;;;5058347;28;20392;-73
2022/11/14 07:11:01;;;;;;;3.20;2.05;;;5.70;99.90;;;;;;5059197;28;20077;-74
2022/11/14 07:13:27;;;;;;;2.30;2.05;;;5.70;99.90;;;;;;5058036;28;20128;-75
2022/11/14 07:15:53;;;;;;;4.10;3.65;;;5.70;99.90;;;;;;5058035;28;20041;-75
2022/11/14 07:18:19;;;;;;;4.00;3.70;;;5.70;99.90;;;;;;5058102;28;20825;-73
2022/11/14 07:20:46;;;;;;;6.68;3.50;;;5.60;99.90;;;;;;5057381;28;20045;-74
2022/11/14 07:23:12;;;;;;;8.73;5.57;;;5.70;99.90;;;;;;5059406;28;20098;-75
2022/11/14 07:25:38;;;;;;;5.07;3.50;;;5.60;99.90;;;;;;5057161;28;20045;-75
2022/11/14 07:28:04;;;;;;;2.25;2.10;;;5.60;99.90;;;;;;5055703;28;20052;-76
2022/11/14 07:30:29;;;;;;;2.83;2.38;;;5.60;99.90;;;;;;5075660;28;20036;-73
2022/11/14 07:32:58;;;;;;;14.65;2.20;;;5.70;99.90;;;;;;5077492;28;20055;-76
2022/11/14 07:35:24;;;;;;;2.83;2.42;;;5.60;99.90;;;;;;5077838;28;20055;-75
2022/11/14 07:37:51;;;;;;;13.23;4.05;;;5.60;99.90;;;;;;5061169;28;20048;-75
2022/11/14 07:40:17;;;;;;;4.60;3.70;;;5.70;99.90;;;;;;5077073;28;20090;-74
2022/11/14 07:42:43;;;;;;;5.32;3.40;;;5.70;99.90;;;;;;5075284;28;20054;-75
2022/11/14 07:45:09;;;;;;;3.05;2.28;;;5.70;99.90;;;;;;5077325;28;21181;-73
2022/11/14 07:47:35;;;;;;;5.65;3.97;;;5.70;99.90;;;;;;5066912;28;20037;-73
2022/11/14 07:50:01;;;;;;;9.32;5.57;;;5.80;99.90;;;;;;5065628;28;20041;-73
2022/11/14 07:52:26;;;;;;;4.68;4.15;;;5.80;99.90;;;;;;5037841;28;20053;-75
2022/11/14 07:54:52;;;;;;;5.20;3.40;;;5.80;99.90;;;;;;5077914;28;20044;-75
2022/11/14 07:57:18;;;;;;;6.32;4.57;;;5.80;78.70;;;;;;5075832;28;20471;-74
2022/11/14 07:59:43;;;;;;;4.85;4.22;;;5.80;53.50;;;;;;5077474;28;20040;-73
2022/11/14 08:02:14;;;;;;;4.65;4.32;;;5.80;35.30;;;;;;5076482;28;20055;-75
2022/11/14 08:04:40;;;;;;;7.90;4.05;;;5.80;71.30;;;;;;5075581;28;20079;-74
2022/11/14 08:07:06;;;;;;;4.38;3.08;;;5.80;28.60;;;;;;5074944;28;20041;-75
2022/11/14 08:09:32;;;;;;;4.60;3.22;;;5.80;76.70;;;;;;5074304;28;20048;-74
2022/11/14 08:11:57;;;;;;;3.65;1.90;;;5.90;99.90;;;;;;5074809;28;20050;-74
2022/11/14 08:14:23;;;;;;;2.38;2.17;;;5.90;50.60;;;;;;5056756;28;20052;-73
2022/11/14 08:16:49;;;;;;;3.97;2.92;;;6.00;65.80;;;;;;5073105;28;20045;-73
2022/11/14 08:19:16;;;;;;;6.53;5.13;;;6.00;37.60;;;;;;5072990;28;20048;-75
2022/11/14 08:21:42;;;;;;;3.35;3.08;;;6.00;16.00;;;;;;5067583;28;20463;-71
2022/11/14 08:24:08;;;;;;;10.73;3.72;;;6.00;1.00;;;;;;5057777;28;20513;-73
2022/11/14 08:26:34;;;;;;;2.67;1.80;;;6.00;19.80;;;;;;5070499;28;20041;-73
2022/11/14 08:29:00;;;;;;;2.80;2.20;;;6.00;1.00;;;;;;5056192;28;20555;-74
2022/11/14 08:31:26;;;;;;;4.25;2.97;;;6.00;1.00;;;;;;5053719;28;20541;-75
2022/11/14 08:33:52;;;;;;;3.67;3.35;;;6.00;1.00;;;;;;5073048;28;20047;-74
2022/11/14 08:36:17;;;;;;;4.70;3.80;;;6.10;1.00;;;;;;5073715;28;20506;-76
2022/11/14 08:38:43;;;;;;;7.85;5.60;;;6.10;1.00;;;;;;5068215;28;20575;-74
2022/11/14 08:41:09;;;;;;;3.30;3.00;;;6.10;1.00;;;;;;5019154;28;20056;-75
2022/11/14 08:43:34;;;;;;;5.38;2.95;;;6.10;1.00;;;;;;5057050;28;20044;-74
2022/11/14 08:46:02;;;;;;;1.75;1.65;;;6.10;1.00;;;;;;5072554;28;20041;-76
2022/11/14 08:48:29;;;;;;;3.80;3.28;;;6.10;1.00;;;;;;5054769;28;20441;-77
2022/11/14 08:50:54;;;;;;;10.52;4.28;;;6.20;1.00;;;;;;5069663;28;20101;-75
2022/11/14 08:53:20;;;;;;;3.08;2.80;;;6.20;1.00;;;;;;5051041;28;20072;-76
2022/11/14 08:55:47;;;;;;;7.78;3.25;;;6.20;1.00;;;;;;5059343;28;20048;-74
2022/11/14 08:58:13;;;;;;;4.50;3.85;;;6.20;1.00;;;;;;5033741;28;20049;-75
2022/11/14 09:00:38;;;;;;;5.88;3.90;;;6.30;1.00;;;;;;5070018;28;20051;-74
2022/11/14 09:03:08;;;;;;;3.53;3.17;;;6.30;99.90;;;;;;5072024;28;20483;-75
2022/11/14 09:05:35;;;;;;;3.40;3.08;;;6.20;99.90;;;;;;5070843;28;20062;-76
2022/11/14 09:08:01;;;;;;;3.65;3.35;;;6.30;1.00;;;;;;5036448;28;20057;-75
2022/11/14 09:10:27;;;;;;;3.28;2.97;;;6.20;1.00;;;;;;5054888;28;20072;-75
2022/11/14 09:12:56;;;;;;;4.07;3.72;;;6.20;99.90;;;;;;5053252;28;20041;-75
2022/11/14 09:15:22;;;;;;;14.00;4.93;;;6.20;99.90;;;;;;5034902;28;20052;-75
2022/11/14 09:17:53;;;;;;;5.25;3.53;;;6.20;1.00;;;;;;5065148;28;20094;-75
2022/11/14 09:20:19;;;;;;;3.85;3.50;;;6.30;1.00;;;;;;5070946;28;20615;-76
2022/11/14 09:22:45;;;;;;;1.88;1.77;;;6.40;1.00;;;;;;5071483;28;20414;-76
2022/11/14 09:25:10;;;;;;;6.22;3.28;;;6.50;1.00;;;;;;5074062;28;20066;-76
2022/11/14 09:27:36;;;;;;;3.30;3.03;;;6.50;99.90;;;;;;5073437;28;20040;-74
2022/11/14 09:30:02;;;;;;;5.03;2.35;;;6.50;99.90;;;;;;5075796;28;20478;-75
2022/11/14 09:32:28;;;;;;;1.92;1.77;;;6.60;99.90;;;;;;5074773;28;20041;-74
2022/11/14 09:34:53;;;;;;;8.68;3.00;;;6.70;1.00;;;;;;5076689;28;20047;-76
2022/11/14 09:37:19;;;;;;;4.25;3.30;;;6.60;99.90;;;;;;5074897;28;20045;-76
2022/11/14 09:39:44;;;;;;;5.63;5.05;;;6.70;99.90;;;;;;5075845;28;20476;-75
2022/11/14 09:42:33;;;;;;;2.17;1.92;;;6.70;99.90;;;;;;5055706;28;20059;-74
2022/11/14 09:45:05;;;;;;;9.70;6.05;;;6.80;99.90;;;;;;5056125;28;20048;-75
2022/11/14 09:47:44;;;;;;;3.83;3.13;;;6.80;99.90;;;;;;5076843;28;20509;-74
2022/11/14 09:50:20;;;;;;;5.72;2.97;;;6.80;99.90;;;;;;5076463;28;20063;-75
2022/11/14 09:52:54;;;;;;;2.20;1.85;;;6.80;99.90;;;;;;5057700;28;20074;-74
2022/11/14 09:55:38;;;;;;;3.67;2.97;;;6.70;99.90;;;;;;5074919;28;20070;-74
2022/11/14 09:58:05;;;;;;;3.33;2.78;;;6.80;99.90;;;;;;5070527;28;20044;-75
2022/11/14 10:00:57;;;;;;;8.45;2.35;;;6.80;99.90;;;;;;5074671;28;20064;-76
2022/11/14 10:04:02;;;;;;;9.05;3.72;;;6.80;99.90;;;;;;5073881;28;20052;-75
2022/11/14 10:07:12;;;;;;;3.58;2.78;;;6.80;99.90;;;;;;5056967;28;20048;-74
2022/11/14 10:10:02;;;;;;;5.82;3.35;;;6.70;99.90;;;;;;5057722;28;20045;-75
2022/11/14 10:12:47;;;;;;;3.95;3.50;;;6.80;99.90;;;;;;5068166;28;20401;-74
2022/11/14 10:15:35;;;;;;;3.08;2.80;;;6.90;99.90;;;;;;5035928;28;20136;-75
2022/11/14 10:18:19;;;;;;;2.30;1.77;;;7.10;99.90;;;;;;5054098;28;20429;-76
2022/11/14 10:20:56;;;;;;;10.43;5.85;;;7.30;99.90;;;;;;5064538;28;20063;-74
2022/11/14 10:23:32;;;;;;;3.90;2.17;;;7.30;99.90;;;;;;5052825;28;20091;-73
2022/11/14 10:26:23;;;;;;;13.27;3.75;;;7.30;99.90;;;;;;5054262;28;20045;-73
2022/11/14 10:29:12;;;;;;;8.07;4.13;;;7.20;99.90;;;;;;5052643;28;20277;-74
2022/11/14 10:32:27;;;;;;;3.08;2.58;;;7.30;99.90;;;;;;5054735;28;20044;-75
2022/11/14 10:35:02;;;;;;;2.10;1.92;;;7.20;99.90;;;;;;5021736;28;20566;-73
2022/11/14 10:37:52;;;;;;;4.45;3.17;;;7.30;99.90;;;;;;5056156;28;20074;-75
2022/11/14 10:40:24;;;;;;;3.13;2.83;;;7.30;99.90;;;;;;5055229;28;20053;-74
2022/11/14 10:43:00;;;;;;;5.22;3.95;;;7.40;99.90;;;;;;5055900;28;20095;-75
2022/11/14 10:45:43;;;;;;;2.75;2.45;;;7.50;99.90;;;;;;5054690;28;20132;-75
2022/11/14 10:48:13;;;;;;;8.65;4.10;;;7.70;1.90;;;;;;5052232;28;20096;-73
2022/11/14 10:50:51;;;;;;;15.60;6.65;;;7.80;99.90;;;;;;5071822;28;20051;-72
2022/11/14 10:53:37;;;;;;;2.35;1.85;;;7.80;39.50;;;;;;5075507;28;20055;-74
2022/11/14 10:56:03;;;;;;;4.90;3.43;;;7.70;1.00;;;;;;5076282;28;20059;-73
2022/11/14 10:58:29;;;;;;;4.80;3.75;;;7.70;28.70;;;;;;5072776;28;20309;-75
2022/11/14 11:00:54;;;;;;;2.53;1.90;;;7.80;99.90;;;;;;5066876;28;20101;-74
2022/11/14 11:03:40;;;;;;;6.35;3.33;;;7.90;99.90;;;;;;5054186;28;20051;-75
2022/11/14 11:06:24;;;;;;;2.10;1.73;;;8.00;99.90;;;;;;5052908;28;20047;-74
2022/11/14 11:11:38;;;;;;;4.45;3.47;;;7.90;99.90;;;;;;5062872;28;20084;-75
2022/11/14 11:14:05;;;;;;;3.38;2.42;;;7.90;99.90;;;;;;5054715;28;20055;-74
2022/11/14 11:16:30;;;;;;;9.73;4.75;;;7.80;1.00;;;;;;5054602;28;20048;-76
2022/11/14 11:19:20;;;;;;;2.75;2.08;;;7.90;1.00;;;;;;5055763;28;20565;-74
2022/11/14 11:21:51;;;;;;;4.28;2.83;;;7.90;99.90;;;;;;5056521;28;20045;-74
2022/11/14 11:24:34;;;;;;;6.45;4.32;;;7.90;99.90;;;;;;5055691;28;20049;-73
2022/11/14 11:27:19;;;;;;;2.28;2.08;;;7.70;99.90;;;;;;5053829;28;20048;-74
2022/11/14 11:29:45;;;;;;;5.63;4.90;;;7.80;1.00;;;;;;5059061;28;20870;-75
2022/11/14 11:32:23;;;;;;;2.83;2.40;;;7.80;1.00;;;;;;5068144;28;20060;-73
2022/11/14 11:34:50;;;;;;;3.30;2.53;;;7.90;2.60;;;;;;5073612;28;20033;-75
2022/11/14 11:37:27;;;;;;;3.80;2.28;;;7.80;99.90;;;;;;5070547;28;20033;-74
2022/11/14 11:39:56;;;;;;;2.03;1.27;;;7.80;1.00;;;;;;5074179;28;20080;-74
2022/11/14 11:42:35;;;;;;;4.30;2.25;;;7.90;1.00;;;;;;5073643;28;20049;-74
2022/11/14 11:45:05;;;;;;;4.40;2.97;;;8.00;1.00;;;;;;5050835;28;20048;-76
2022/11/14 11:47:34;;;;;;;2.70;2.22;;;8.20;99.90;;;;;;5051792;28;20099;-72
2022/11/14 11:50:01;;;;;;;5.13;3.70;;;8.30;1.00;;;;;;5034970;28;20044;-74
2022/11/14 11:52:30;;;;;;;2.28;1.67;;;8.40;99.90;;;;;;5052689;28;20071;-75
2022/11/14 11:55:16;;;;;;;1.83;1.55;;;8.40;99.90;;;;;;5050425;28;20464;-76
2022/11/14 11:57:46;;;;;;;5.90;2.90;;;8.60;99.90;;;;;;5053393;28;20099;-75
2022/11/14 12:00:18;;;;;;;8.43;3.63;;;8.60;99.90;;;;;;5075867;28;20040;-75
2022/11/14 12:02:51;;;;;;;4.47;2.88;;;8.60;99.90;;;;;;5093468;28;20048;-76
2022/11/14 12:05:20;;;;;;;3.45;1.88;;;8.40;99.90;;;;;;5067064;28;20048;-74
2022/11/14 12:07:59;;;;;;;4.60;3.55;;;8.50;99.90;;;;;;5055792;28;20049;-75
2022/11/14 12:10:28;;;;;;;1.77;1.48;;;8.50;99.90;;;;;;5057969;28;20113;-74
2022/11/14 12:13:13;;;;;;;8.00;3.65;;;8.60;99.90;;;;;;5091489;28;20044;-76
2022/11/14 12:15:58;;;;;;;3.28;2.50;;;8.80;99.90;;;;;;5072219;28;20045;-75
2022/11/14 12:18:39;;;;;;;1.25;1.15;;;9.00;1.00;;;;;;5053236;28;20384;-75
2022/11/14 12:21:15;;;;;;;4.18;2.03;;;9.00;68.60;;;;;;5052493;28;20427;-75
2022/11/14 12:24:21;;;;;;;3.83;2.03;;;9.00;1.00;;;;;;5072319;28;20040;-76
2022/11/14 12:26:59;;;;;;;4.72;3.70;;;8.80;99.90;;;;;;5041068;28;20056;-76
2022/11/14 12:29:50;;;;;;;6.97;3.88;;;8.70;99.90;;;;;;5054972;28;20629;-76
2022/11/14 12:32:26;;;;;;;3.70;1.88;;;8.70;99.90;;;;;;5037680;28;20108;-76
2022/11/14 12:34:52;;;;;;;8.27;3.50;;;8.70;99.90;;;;;;5072569;28;20102;-75
2022/11/14 12:37:50;;;;;;;5.97;3.47;;;8.70;1.00;;;;;;5073724;28;20040;-76
2022/11/14 12:40:22;;;;;;;2.45;1.98;;;8.80;99.90;;;;;;5047053;28;20376;-73
2022/11/14 12:42:48;;;;;;;7.18;3.15;;;8.80;1.00;;;;;;5063435;28;20071;-75
2022/11/14 12:45:38;;;;;;;5.13;1.65;;;8.80;99.90;;;;;;5075729;28;20056;-75
2022/11/14 12:48:14;;;;;;;6.25;3.47;;;8.90;1.00;;;;;;5075098;28;20483;-75
2022/11/14 12:50:41;;;;;;;5.00;3.50;;;9.10;1.00;;;;;;5076148;28;20056;-74
2022/11/14 12:53:36;;;;;;;4.95;2.55;;;9.20;99.90;;;;;;5076645;28;20048;-74
2022/11/14 12:56:20;;;;;;;4.35;3.10;;;9.20;33.10;;;;;;5067163;28;20602;-74
2022/11/14 12:58:45;;;;;;;7.68;2.15;;;9.20;1.00;;;;;;5079349;28;20048;-75
2022/11/14 13:01:29;;;;;;;5.13;2.45;;;9.40;1.00;;;;;;5079248;28;20049;-74
2022/11/14 13:04:16;;;;;;;6.13;2.90;;;9.50;99.90;;;;;;5083927;28;20072;-74
2022/11/14 13:07:01;;;;;;;3.42;2.15;;;9.50;99.90;;;;;;5070171;28;20061;-73
2022/11/14 13:09:34;;;;;;;4.38;2.17;;;9.20;99.90;;;;;;5081279;28;20052;-73
2022/11/14 13:21:47;;;;;;;2.85;2.55;;;9.70;99.90;;;;;;5057688;28;20049;-76
2022/11/14 13:24:17;;;;;;;4.25;2.92;;;9.80;99.90;;;;;;5061227;28;20067;-74